Time;durP1;ratioP1;P1;durP2;ratioP2;P2;SDS_P1;SDS_P2;PMS_P1;PMS_P2;Temp;Humidity;BMP_temperature;BMP_pressure;BME280_temperature;BME280_humidity;BME280_pressure;Samples;Min_cycle;Max_cycle;Signal;HPM_P1;HPM_P2
2022/04/01 00:01:40;;;;;;;;;;;;;;;0.64;100.00;96220.89;1614024;88;24811;-84
2022/04/01 00:04:07;;;;;;;;;;;;;;;0.62;100.00;96220.98;1608000;87;22044;-84
2022/04/01 00:06:33;;;;;;;;;;;;;;;0.62;100.00;96218.88;1619430;86;26827;-84
2022/04/01 00:09:00;;;;;;;;;;;;;;;0.61;100.00;96213.36;1626084;88;24393;-84
2022/04/01 00:11:26;;;;;;;;;;;;;;;0.60;100.00;96211.24;1613161;86;20232;-85
2022/04/01 00:13:52;;;;;;;;;;;;;;;0.60;100.00;96210.45;1631556;86;20224;-84
2022/04/01 00:16:20;;;;;;;;;;;;;;;0.58;100.00;96201.98;1625375;87;21991;-84
2022/04/01 00:18:46;;;;;;;;;;;;;;;0.58;100.00;96205.84;1627708;86;26090;-84
2022/04/01 00:21:12;;;;;;;;;;;;;;;0.57;100.00;96202.45;1625876;86;24557;-84
2022/04/01 00:23:38;;;;;;;;;;;;;;;0.56;100.00;96197.39;1621117;86;20506;-84
2022/04/01 00:26:07;;;;;;;;;;;;;;;0.56;100.00;96197.39;1617814;87;20422;-84
2022/04/01 00:28:33;;;;;;;;;;;;;;;0.56;100.00;96194.36;1638512;86;21951;-84
2022/04/01 00:30:59;;;;;;;;;;;;;;;0.56;100.00;96194.82;1617848;87;21107;-83
2022/04/01 00:33:25;;;;;;;;;;;;;;;0.55;100.00;96192.70;1615532;87;24513;-85
2022/04/01 00:35:51;;;;;;;;;;;;;;;0.55;100.00;96194.45;1630588;86;20309;-85
2022/04/01 00:38:17;;;;;;;;;;;;;;;0.55;100.00;96196.56;1635307;87;24733;-85
2022/04/01 00:40:43;;;;;;;;;;;;;;;0.54;100.00;96190.26;1626715;87;20238;-85
2022/04/01 00:43:10;;;;;;;;;;;;;;;0.52;100.00;96180.06;1628192;87;21163;-85
2022/04/01 00:45:36;;;;;;;;;;;;;;;0.52;100.00;96181.80;1601023;88;24521;-84
2022/04/01 00:48:03;;;;;;;;;;;;;;;0.52;100.00;96182.63;1577703;87;20670;-84
2022/04/01 00:50:30;;;;;;;;;;;;;;;0.54;100.00;96188.97;1590048;90;24823;-84
2022/04/01 00:52:57;;;;;;;;;;;;;;;0.52;100.00;96188.23;1608861;86;22138;-84
2022/04/01 00:55:23;;;;;;;;;;;;;;;0.54;100.00;96194.12;1624911;86;25997;-84
2022/04/01 00:57:49;;;;;;;;;;;;;;;0.52;100.00;96195.50;1625648;86;24416;-85
2022/04/01 01:00:15;;;;;;;;;;;;;;;0.53;100.00;96195.86;1620136;87;20301;-85
2022/04/01 01:02:41;;;;;;;;;;;;;;;0.54;100.00;96193.66;1633213;86;24999;-86
2022/04/01 01:05:08;;;;;;;;;;;;;;;0.55;100.00;96191.88;1628701;86;22683;-85
2022/04/01 01:07:34;;;;;;;;;;;;;;;0.56;100.00;96199.97;1628057;85;26108;-85
2022/04/01 01:10:01;;;;;;;;;;;;;;;0.55;100.00;96194.00;1612782;86;24553;-85
2022/04/01 01:12:27;;;;;;;;;;;;;;;0.56;100.00;96193.53;1584559;90;20373;-85
2022/04/01 01:14:53;;;;;;;;;;;;;;;0.55;100.00;96195.73;1579890;89;24795;-85
2022/04/01 01:17:19;;;;;;;;;;;;;;;0.56;100.00;96189.67;1581542;90;22119;-85
2022/04/01 01:19:45;;;;;;;;;;;;;;;0.55;100.00;96191.42;1594805;87;21144;-85
2022/04/01 01:22:13;;;;;;;;;;;;;;;0.56;100.00;96185.81;1599275;88;25200;-85
2022/04/01 01:24:44;;;;;;;;;;;;;;;0.56;100.00;96192.25;1608366;87;20206;-85
2022/04/01 01:27:13;;;;;;;;;;;;;;;0.56;100.00;96191.79;1599670;89;24983;-84
2022/04/01 01:29:40;;;;;;;;;;;;;;;0.57;100.00;96193.91;1582081;90;22041;-85
2022/04/01 01:32:09;;;;;;;;;;;;;;;0.56;100.00;96182.78;1599572;89;26054;-85
2022/04/01 01:34:39;;;;;;;;;;;;;;;0.57;100.00;96178.46;1587594;89;25396;-86
2022/04/01 01:37:05;;;;;;;;;;;;;;;0.59;100.00;96176.63;1582117;89;20227;-84
2022/04/01 01:39:31;;;;;;;;;;;;;;;0.60;100.00;96179.56;1583496;90;25001;-84
2022/04/01 01:41:57;;;;;;;;;;;;;;;0.61;100.00;96173.47;1586688;90;21975;-85
2022/04/01 01:44:24;;;;;;;;;;;;;;;0.60;100.00;96167.98;1597348;88;26009;-84
2022/04/01 01:46:51;;;;;;;;;;;;;;;0.59;100.00;96162.02;1599264;89;24601;-84
2022/04/01 01:49:20;;;;;;;;;;;;;;;0.61;100.00;96154.99;1608501;87;20700;-84
2022/04/01 01:54:49;;;;;;;;;;;;;;;0.63;100.00;96163.91;1599470;89;22022;-85
2022/04/01 01:57:11;;;;;;;;;;;;;;;0.61;100.00;96158.85;1598005;88;27013;-85
2022/04/01 01:59:38;;;;;;;;;;;;;;;0.62;100.00;96162.25;1598729;89;24538;-85
2022/04/01 02:02:10;;;;;;;;;;;;;;;0.61;100.00;96158.85;1587913;90;20261;-85
2022/04/01 02:04:34;;;;;;;;;;;;;;;0.62;100.00;96161.79;1597080;88;24923;-85
2022/04/01 02:07:00;;;;;;;;;;;;;;;0.60;100.00;96157.20;1605362;87;21897;-85
2022/04/01 02:09:27;;;;;;;;;;;;;;;0.61;100.00;96156.73;1597396;88;26013;-85
2022/04/01 02:11:53;;;;;;;;;;;;;;;0.62;100.00;96166.11;1634984;86;24523;-85
2022/04/01 02:14:19;;;;;;;;;;;;;;;0.62;100.00;96161.79;1606677;86;20249;-84
2022/04/01 02:16:45;;;;;;;;;;;;;;;0.61;100.00;96162.71;1612008;87;24983;-84
2022/04/01 02:19:11;;;;;;;;;;;;;;;0.61;100.00;96164.45;1622277;86;21938;-84
2022/04/01 02:21:37;;;;;;;;;;;;;;;0.60;100.00;96158.98;1626397;86;25983;-85
2022/04/01 02:24:10;;;;;;;;;;;;;;;0.61;100.00;96154.99;1625770;87;25315;-85
2022/04/01 02:26:35;;;;;;;;;;;;;;;0.62;100.00;96148.92;1628887;87;20297;-85
2022/04/01 02:29:03;;;;;;;;;;;;;;;0.60;100.00;96137.10;1640381;86;20364;-85
2022/04/01 02:31:28;;;;;;;;;;;;;;;0.60;100.00;96125.03;1592983;87;22183;-85
2022/04/01 02:33:54;;;;;;;;;;;;;;;0.60;100.00;96125.52;1611672;86;20997;-85
2022/04/01 02:36:20;;;;;;;;;;;;;;;0.60;100.00;96131.47;1633349;86;24474;-85
2022/04/01 02:38:50;;;;;;;;;;;;;;;0.60;100.00;96130.67;1625277;86;20252;-85
2022/04/01 02:41:16;;;;;;;;;;;;;;;0.59;100.00;96132.41;1633110;87;24854;-85
2022/04/01 02:43:42;;;;;;;;;;;;;;;0.60;100.00;96130.67;1629031;86;21973;-85
2022/04/01 02:46:10;;;;;;;;;;;;;;;0.60;100.00;96131.47;1628565;88;21249;-85
2022/04/01 02:48:36;;;;;;;;;;;;;;;0.61;100.00;96142.58;1599813;89;24527;-85
2022/04/01 02:51:02;;;;;;;;;;;;;;;0.60;100.00;96140.47;1599358;88;20238;-84
2022/04/01 02:53:28;;;;;;;;;;;;;;;0.61;100.00;96143.41;1600604;88;24892;-83
2022/04/01 02:55:54;;;;;;;;;;;;;;;0.62;100.00;96150.21;1623743;88;20273;-83
2022/04/01 02:58:21;;;;;;;;;;;;;;;0.63;100.00;96154.90;1597922;88;25950;-83
2022/04/01 03:00:47;;;;;;;;;;;;;;;0.64;100.00;96154.80;1599259;86;24484;-83
2022/04/01 03:03:13;;;;;;;;;;;;;;;0.63;100.00;96145.43;1629049;87;20557;-83
2022/04/01 03:05:40;;;;;;;;;;;;;;;0.63;100.00;96139.00;1634738;86;24803;-83
2022/04/01 03:08:07;;;;;;;;;;;;;;;0.63;100.00;96135.59;1628779;87;21983;-83
2022/04/01 03:10:34;;;;;;;;;;;;;;;0.63;100.00;96145.89;1625749;85;26006;-83
2022/04/01 03:13:04;;;;;;;;;;;;;;;0.63;100.00;96151.03;1618877;86;24496;-84
2022/04/01 03:15:30;;;;;;;;;;;;;;;0.62;100.00;96160.50;1629553;85;20298;-84
2022/04/01 03:17:56;;;;;;;;;;;;;;;0.61;100.00;96151.59;1627962;87;20222;-84
2022/04/01 03:20:22;;;;;;;;;;;;;;;0.61;100.00;96151.13;1623960;87;21944;-84
2022/04/01 03:22:50;;;;;;;;;;;;;;;0.61;100.00;96148.56;1628590;86;26014;-84
2022/04/01 03:25:18;;;;;;;;;;;;;;;0.60;100.00;96152.05;1634964;86;24466;-85
2022/04/01 03:27:46;;;;;;;;;;;;;;;0.62;100.00;96144.23;1628347;85;20364;-84
2022/04/01 03:30:13;;;;;;;;;;;;;;;0.58;100.00;96140.23;1605982;87;24761;-84
2022/04/01 03:32:39;;;;;;;;;;;;;;;0.57;100.00;96144.55;1619787;87;21991;-84
2022/04/01 03:35:10;;;;;;;;;;;;;;;0.56;100.00;96149.33;1600877;87;26074;-84
2022/04/01 03:37:36;;;;;;;;;;;;;;;0.57;100.00;96157.88;1630797;86;24536;-84
2022/04/01 03:40:03;;;;;;;;;;;;;;;0.57;100.00;96155.30;1618399;87;20235;-84
2022/04/01 03:42:31;;;;;;;;;;;;;;;0.58;100.00;96156.95;1601602;88;24824;-84
2022/04/01 03:44:58;;;;;;;;;;;;;;;0.60;100.00;96156.41;1579485;89;22021;-84
2022/04/01 03:47:26;;;;;;;;;;;;;;;0.58;100.00;96156.50;1584404;89;25990;-84
2022/04/01 03:49:53;;;;;;;;;;;;;;;0.59;100.00;96153.47;1580412;89;24752;-84
2022/04/01 03:52:19;;;;;;;;;;;;;;;0.56;100.00;96161.38;1606775;87;20276;-84
2022/04/01 03:54:47;;;;;;;;;;;;;;;0.55;100.00;96155.39;1612615;86;24742;-83
2022/04/01 03:57:15;;;;;;;;;;;;;;;0.54;100.00;96152.48;1613160;87;22053;-84
2022/04/01 03:59:44;;;;;;;;;;;;;;;0.52;100.00;96150.93;1628716;85;26777;-84
2022/04/01 04:02:15;;;;;;;;;;;;;;;0.51;100.00;96147.98;1626644;88;25314;-84
2022/04/01 04:04:41;;;;;;;;;;;;;;;0.50;100.00;96148.91;1629828;86;20276;-84
2022/04/01 04:07:07;;;;;;;;;;;;;;;0.49;100.00;96157.12;1609995;86;24754;-84
2022/04/01 04:09:35;;;;;;;;;;;;;;;0.48;100.00;96158.03;1611629;87;22223;-84
2022/04/01 04:12:02;;;;;;;;;;;;;;;0.48;100.00;96166.22;1627487;86;26895;-84
2022/04/01 04:14:28;;;;;;;;;;;;;;;0.50;100.00;96169.48;1627048;88;24485;-84
2022/04/01 04:16:56;;;;;;;;;;;;;;;0.51;100.00;96162.14;1621987;86;20185;-83
2022/04/01 04:19:30;;;;;;;;;;;;;;;0.49;100.00;96161.44;1623605;86;24747;-83
2022/04/01 04:21:57;;;;;;;;;;;;;;;0.51;100.00;96171.14;1611599;86;22131;-83
2022/04/01 04:24:31;;;;;;;;;;;;;;;0.51;100.00;96176.30;1621489;86;25995;-83
2022/04/01 04:27:00;;;;;;;;;;;;;;;0.53;100.00;96182.17;1611096;87;24526;-83
2022/04/01 04:29:27;;;;;;;;;;;;;;;0.54;100.00;96179.50;1621696;86;20209;-83
2022/04/01 04:32:02;;;;;;;;;;;;;;;0.55;100.00;96180.30;1621883;88;25321;-83
2022/04/01 04:34:33;;;;;;;;;;;;;;;0.55;100.00;96175.16;1627292;86;22132;-83
2022/04/01 04:37:00;;;;;;;;;;;;;;;0.52;100.00;96176.20;1627740;87;25996;-83
2022/04/01 04:39:31;;;;;;;;;;;;;;;0.50;100.00;96178.03;1605728;87;25227;-84
2022/04/01 04:41:57;;;;;;;;;;;;;;;0.49;100.00;96176.42;1622491;88;20249;-85
2022/04/01 04:44:27;;;;;;;;;;;;;;;0.46;100.00;96174.48;1623174;88;25066;-85
2022/04/01 04:46:53;;;;;;;;;;;;;;;0.43;100.00;96173.42;1622469;86;21868;-85
2022/04/01 04:49:20;;;;;;;;;;;;;;;0.42;100.00;96173.88;1620769;86;26004;-85
2022/04/01 04:51:48;;;;;;;;;;;;;;;0.39;100.00;96177.45;1619009;88;24543;-85
2022/04/01 04:54:14;;;;;;;;;;;;;;;0.39;100.00;96180.48;1613469;87;20482;-85
2022/04/01 04:56:41;;;;;;;;;;;;;;;0.39;100.00;96178.74;1626153;88;24748;-84
2022/04/01 04:59:09;;;;;;;;;;;;;;;0.39;100.00;96181.77;1615897;86;21988;-84
2022/04/01 05:01:40;;;;;;;;;;;;;;;0.43;100.00;96180.67;1609561;88;26207;-85
2022/04/01 05:04:09;;;;;;;;;;;;;;;0.46;100.00;96188.64;1632309;86;25228;-85
2022/04/01 05:06:40;;;;;;;;;;;;;;;0.45;100.00;96181.38;1628699;86;20220;-85
2022/04/01 05:09:17;;;;;;;;;;;;;;;0.45;100.00;96186.52;1621766;86;24823;-85
2022/04/01 05:11:47;;;;;;;;;;;;;;;0.47;100.00;96185.14;1605275;86;22792;-85
2022/04/01 05:14:15;;;;;;;;;;;;;;;0.50;100.00;96188.79;1630469;86;26797;-85
2022/04/01 05:16:57;;;;;;;;;;;;;;;0.51;100.00;96185.30;1613857;86;25716;-85
2022/04/01 05:19:28;;;;;;;;;;;;;;;0.50;100.00;96188.33;1615757;87;20231;-85
2022/04/01 05:22:00;;;;;;;;;;;;;;;0.49;100.00;96190.56;1638316;86;24822;-85
2022/04/01 05:24:29;;;;;;;;;;;;;;;0.49;100.00;96188.45;1610747;86;21487;-84
2022/04/01 05:26:55;;;;;;;;;;;;;;;0.48;100.00;96194.52;1629630;86;26037;-84
2022/04/01 05:29:26;;;;;;;;;;;;;;;0.47;100.00;96191.12;1630488;87;24375;-84
2022/04/01 05:31:58;;;;;;;;;;;;;;;0.48;100.00;96198.37;1631400;86;20253;-85
2022/04/01 05:34:43;;;;;;;;;;;;;;;0.48;100.00;96197.09;1630572;86;24742;-84
2022/04/01 05:37:09;;;;;;;;;;;;;;;0.47;100.00;96197.55;1632459;86;22007;-84
2022/04/01 05:39:36;;;;;;;;;;;;;;;0.48;100.00;96200.95;1627206;88;25975;-83
2022/04/01 05:42:04;;;;;;;;;;;;;;;0.48;100.00;96205.64;1629560;86;24511;-83
2022/04/01 05:44:32;;;;;;;;;;;;;;;0.47;100.00;96202.70;1604967;86;20267;-83
2022/04/01 05:46:58;;;;;;;;;;;;;;;0.48;100.00;96208.21;1623352;86;24251;-83
2022/04/01 05:49:25;;;;;;;;;;;;;;;0.49;100.00;96202.61;1630059;87;22000;-84
2022/04/01 05:51:52;;;;;;;;;;;;;;;0.48;100.00;96205.64;1630049;87;26185;-84
2022/04/01 05:54:20;;;;;;;;;;;;;;;0.50;100.00;96205.05;1625981;87;24397;-84
2022/04/01 05:56:47;;;;;;;;;;;;;;;0.51;100.00;96209.74;1632473;86;20261;-83
2022/04/01 05:59:15;;;;;;;;;;;;;;;0.49;100.00;96207.29;1611202;87;24861;-83
2022/04/01 06:01:46;;;;;;;;;;;;;;;0.53;100.00;96207.91;1609159;86;22153;-84
2022/04/01 06:04:30;;;;;;;;;;;;;;;0.53;100.00;96212.59;1629193;86;26217;-83
2022/04/01 06:07:01;;;;;;;;;;;;;;;0.53;100.00;96213.87;1629513;86;24421;-83
2022/04/01 06:09:38;;;;;;;;;;;;;;;0.54;100.00;96206.98;1628419;86;20321;-84
2022/04/01 06:12:11;;;;;;;;;;;;;;;0.55;100.00;96207.32;1627159;87;24701;-84
2022/04/01 06:14:47;;;;;;;;;;;;;;;0.53;100.00;96203.58;1629049;85;22032;-84
2022/04/01 06:17:18;;;;;;;;;;;;;;;0.55;100.00;96205.58;1596271;88;26059;-85
2022/04/01 06:19:45;;;;;;;;;;;;;;;0.54;100.00;96204.41;1619887;87;24535;-85
2022/04/01 06:22:13;;;;;;;;;;;;;;;0.55;100.00;96201.72;1613672;88;20232;-84
2022/04/01 06:24:53;;;;;;;;;;;;;;;0.55;100.00;96200.43;1617966;86;24723;-82
2022/04/01 06:27:26;;;;;;;;;;;;;;;0.56;100.00;96203.83;1631346;85;22194;-82
2022/04/01 06:29:57;;;;;;;;;;;;;;;0.57;100.00;96205.48;1602401;87;26091;-83
2022/04/01 06:32:41;;;;;;;;;;;;;;;0.59;100.00;96211.36;1612813;87;25197;-82
2022/04/01 06:35:09;;;;;;;;;;;;;;;0.59;100.00;96213.94;1622950;87;20232;-83
2022/04/01 06:37:42;;;;;;;;;;;;;;;0.60;100.00;96216.39;1595529;87;25597;-82
2022/04/01 06:40:10;;;;;;;;;;;;;;;0.61;100.00;96214.64;1612391;86;22140;-83
2022/04/01 06:42:37;;;;;;;;;;;;;;;0.62;100.00;96213.72;1610584;87;25995;-82
2022/04/01 06:45:08;;;;;;;;;;;;;;;0.62;100.00;96213.72;1615051;87;24525;-82
2022/04/01 06:47:35;;;;;;;;;;;;;;;0.62;100.00;96209.41;1626416;87;20205;-83
2022/04/01 06:50:01;;;;;;;;;;;;;;;0.62;100.00;96213.72;1622283;87;24822;-83
2022/04/01 06:52:27;;;;;;;;;;;;;;;0.63;100.00;96212.80;1635264;86;21969;-83
2022/04/01 06:54:54;;;;;;;;;;;;;;;0.63;100.00;96214.09;1620146;86;25963;-82
2022/04/01 06:57:21;;;;;;;;;;;;;;;0.65;100.00;96220.80;1609957;87;24379;-82
2022/04/01 06:59:54;;;;;;;;;;;;;;;0.66;100.00;96224.99;1622017;86;20185;-83
2022/04/01 07:02:20;;;;;;;;;;;;;;;0.66;100.00;96217.73;1624338;87;24769;-83
2022/04/01 07:04:46;;;;;;;;;;;;;;;0.68;100.00;96218.47;1641520;86;20280;-82
2022/04/01 07:07:12;;;;;;;;;;;;;;;0.67;100.00;96216.36;1615952;87;21198;-83
2022/04/01 07:09:38;;;;;;;;;;;;;;;0.66;100.00;96213.87;1585117;88;24677;-82
2022/04/01 07:12:05;;;;;;;;;;;;;;;0.64;100.00;96211.88;1595535;88;20244;-82
2022/04/01 07:14:31;;;;;;;;;;;;;;;0.64;100.00;96207.56;1582268;90;24822;-82
2022/04/01 07:16:59;;;;;;;;;;;;;;;0.66;100.00;96216.45;1598041;89;20297;-82
2022/04/01 07:19:25;;;;;;;;;;;;;;;0.65;100.00;96218.69;1599290;88;25991;-83
2022/04/01 07:21:52;;;;;;;;;;;;;;;0.69;100.00;96223.52;1579515;90;24507;-83
2022/04/01 07:24:18;;;;;;;;;;;;;;;0.73;100.00;96218.53;1598183;89;20225;-83
2022/04/01 07:26:44;;;;;;;;;;;;;;;0.78;100.00;96224.66;1587355;89;20215;-83
2022/04/01 07:29:11;;;;;;;;;;;;;;;0.78;100.00;96220.33;1597276;89;22057;-83
2022/04/01 07:34:23;;;;;;;;;;;;;;;0.83;100.00;96222.59;1613286;88;24749;-83
2022/04/01 07:36:49;;;;;;;;;;;;;;;0.81;100.00;96220.61;1608510;87;20379;-83
2022/04/01 07:39:15;;;;;;;;;;;;;;;0.81;100.00;96221.44;1599520;88;24753;-83
2022/04/01 07:41:41;;;;;;;;;;;;;;;0.85;100.00;96229.77;1597415;88;21920;-83
2022/04/01 07:44:07;;;;;;;;;;;;;;;0.84;100.00;96231.52;1597434;89;21106;-83
2022/04/01 07:46:34;;;;;;;;;;;;;;;0.86;100.00;96225.44;1597730;89;20252;-84
2022/04/01 07:48:59;;;;;;;;;;;;;;;0.88;100.00;96226.14;1595477;89;20435;-84
2022/04/01 07:51:25;;;;;;;;;;;;;;;0.93;100.00;96237.78;1597175;89;20220;-83
2022/04/01 07:53:51;;;;;;;;;;;;;;;0.94;100.00;96231.72;1597323;89;20299;-83
2022/04/01 07:56:17;;;;;;;;;;;;;;;0.94;100.00;96240.73;1597526;89;21038;-83
2022/04/01 07:58:43;;;;;;;;;;;;;;;0.95;100.00;96242.84;1593601;89;20576;-83
2022/04/01 08:01:09;;;;;;;;;;;;;;;0.95;100.00;96232.08;1597960;88;20324;-83
2022/04/01 08:03:35;;;;;;;;;;;;;;;0.95;100.00;96224.36;1596988;89;20409;-83
2022/04/01 08:06:01;;;;;;;;;;;;;;;0.96;100.00;96228.59;1580541;89;20283;-83
2022/04/01 08:08:27;;;;;;;;;;;;;;;0.97;100.00;96235.85;1598043;88;21039;-84
2022/04/01 08:10:54;;;;;;;;;;;;;;;0.97;100.00;96237.97;1592574;89;24492;-83
2022/04/01 08:13:20;;;;;;;;;;;;;;;0.96;100.00;96249.19;1616752;86;20540;-83
2022/04/01 08:15:49;;;;;;;;;;;;;;;0.93;100.00;96244.72;1630580;86;20259;-83
2022/04/01 08:18:15;;;;;;;;;;;;;;;0.93;100.00;96247.29;1635909;86;22261;-83
2022/04/01 08:20:41;;;;;;;;;;;;;;;0.93;100.00;96250.66;1634290;86;20966;-83
2022/04/01 08:23:11;;;;;;;;;;;;;;;0.92;100.00;96254.65;1626725;85;24612;-83
2022/04/01 08:25:38;;;;;;;;;;;;;;;0.91;100.00;96254.28;1641426;86;20147;-84
2022/04/01 08:28:05;;;;;;;;;;;;;;;0.91;100.00;96256.86;1625777;86;24819;-84
2022/04/01 08:30:32;;;;;;;;;;;;;;;0.91;100.00;96262.83;1629101;86;22042;-84
2022/04/01 08:33:04;;;;;;;;;;;;;;;0.92;100.00;96267.52;1624900;86;26773;-84
2022/04/01 08:35:30;;;;;;;;;;;;;;;0.92;100.00;96266.23;1635355;86;24493;-84
2022/04/01 08:37:58;;;;;;;;;;;;;;;0.91;100.00;96258.97;1610954;86;20348;-84
2022/04/01 08:40:32;;;;;;;;;;;;;;;0.90;100.00;96256.48;1620122;86;24744;-84
2022/04/01 08:42:59;;;;;;;;;;;;;;;0.87;100.00;96258.82;1624660;86;22093;-84
2022/04/01 08:45:25;;;;;;;;;;;;;;;0.87;100.00;96262.69;1629086;87;26026;-84
2022/04/01 08:47:51;;;;;;;;;;;;;;;0.91;100.00;96269.27;1629260;88;24388;-84
2022/04/01 08:50:17;;;;;;;;;;;;;;;0.93;100.00;96276.91;1630935;86;20233;-84
2022/04/01 08:52:43;;;;;;;;;;;;;;;0.96;100.00;96282.66;1610403;87;20844;-84
2022/04/01 08:55:10;;;;;;;;;;;;;;;0.93;100.00;96285.91;1629279;86;22106;-84
2022/04/01 08:57:38;;;;;;;;;;;;;;;0.91;100.00;96283.43;1625692;86;25961;-84
2022/04/01 09:00:18;;;;;;;;;;;;;;;0.88;100.00;96280.21;1622026;88;24432;-83
2022/04/01 09:02:45;;;;;;;;;;;;;;;0.85;100.00;96276.11;1621891;86;20467;-84
2022/04/01 09:05:12;;;;;;;;;;;;;;;0.84;100.00;96283.46;1638883;86;24729;-84
2022/04/01 09:07:38;;;;;;;;;;;;;;;0.82;100.00;96280.98;1634058;86;22035;-84
2022/04/01 09:10:05;;;;;;;;;;;;;;;0.83;100.00;96284.38;1611525;87;20963;-84
2022/04/01 09:12:31;;;;;;;;;;;;;;;0.85;100.00;96278.68;1607933;87;24470;-84
2022/04/01 09:14:58;;;;;;;;;;;;;;;0.86;100.00;96277.77;1590577;89;20150;-84
2022/04/01 09:17:41;;;;;;;;;;;;;;;0.88;100.00;96276.34;1594767;87;24794;-84
2022/04/01 09:20:09;;;;;;;;;;;;;;;0.91;100.00;96277.00;1586084;88;22109;-84
2022/04/01 09:22:36;;;;;;;;;;;;;;;0.94;100.00;96281.09;1593519;88;26067;-84
2022/04/01 09:25:04;;;;;;;;;;;;;;;0.97;100.00;96283.03;1599739;88;24633;-84
2022/04/01 09:27:44;;;;;;;;;;;;;;;1.01;100.00;96282.35;1576010;87;20414;-84
2022/04/01 09:30:18;;;;;;;;;;;;;;;1.03;100.00;96281.34;1576678;89;25534;-84
2022/04/01 09:32:47;;;;;;;;;;;;;;;1.05;100.00;96284.62;1598642;87;22156;-84
2022/04/01 09:35:16;;;;;;;;;;;;;;;1.06;100.00;96286.73;1609575;87;25983;-84
2022/04/01 09:37:47;;;;;;;;;;;;;;;1.06;100.00;96293.17;1578896;87;24563;-83
2022/04/01 09:40:15;;;;;;;;;;;;;;;1.09;100.00;96286.55;1594655;87;20440;-84
2022/04/01 09:42:47;;;;;;;;;;;;;;;1.09;100.00;96293.78;1588965;88;20493;-84
2022/04/01 09:45:21;;;;;;;;;;;;;;;1.09;100.00;96301.51;1591906;88;21712;-84
2022/04/01 09:48:07;;;;;;;;;;;;;;;1.09;100.00;96298.14;1586185;89;26109;-84
2022/04/01 09:50:37;;;;;;;;;;;;;;;1.11;100.00;96300.95;1619200;86;22810;-84
2022/04/01 09:53:17;;;;;;;;;;;;;;;1.09;100.00;96301.51;1593667;88;20301;-85
2022/04/01 09:55:44;;;;;;;;;;;;;;;1.10;100.00;96298.47;1592446;88;24933;-85
2022/04/01 09:58:11;;;;;;;;;;;;;;;1.09;100.00;96298.14;1586641;88;21977;-85
2022/04/01 10:00:38;;;;;;;;;;;;;;;1.11;100.00;96304.81;1586429;87;26727;-85
2022/04/01 10:03:06;;;;;;;;;;;;;;;1.10;100.00;96299.77;1581281;88;24509;-85
2022/04/01 10:05:42;;;;;;;;;;;;;;;1.09;100.00;96301.51;1570744;90;20315;-85
2022/04/01 10:08:10;;;;;;;;;;;;;;;1.10;100.00;96305.74;1569175;89;25556;-85
2022/04/01 10:10:38;;;;;;;;;;;;;;;1.12;100.00;96307.77;1579876;88;22082;-85
2022/04/01 10:13:20;;;;;;;;;;;;;;;1.17;100.00;96313.89;1569634;88;26791;-85
2022/04/01 10:15:49;;;;;;;;;;;;;;;1.22;100.00;96312.66;1603739;87;24554;-85
2022/04/01 10:18:24;;;;;;;;;;;;;;;1.23;100.00;96311.73;1604192;87;20497;-85
2022/04/01 10:20:51;;;;;;;;;;;;;;;1.24;100.00;96316.43;1612419;87;24772;-85
2022/04/01 10:23:18;;;;;;;;;;;;;;;1.26;100.00;96315.38;1608559;87;22215;-85
2022/04/01 10:25:46;;;;;;;;;;;;;;;1.28;100.00;96311.42;1604508;87;25830;-86
2022/04/01 10:28:12;;;;;;;;;;;;;;;1.26;100.00;96317.96;1611074;87;25332;-86
2022/04/01 10:30:40;;;;;;;;;;;;;;;1.26;100.00;96311.52;1573605;89;20296;-86
2022/04/01 10:33:09;;;;;;;;;;;;;;;1.31;100.00;96309.12;1581092;88;25611;-86
2022/04/01 10:35:37;;;;;;;;;;;;;;;1.30;100.00;96315.20;1591028;88;22101;-86
2022/04/01 10:38:08;;;;;;;;;;;;;;;1.31;100.00;96321.52;1588709;88;26865;-86
2022/04/01 10:40:36;;;;;;;;;;;;;;;1.29;100.00;96317.41;1578948;89;24636;-86
2022/04/01 10:43:13;;;;;;;;;;;;;;;1.25;100.00;96321.95;1577508;88;20226;-86
2022/04/01 10:45:40;;;;;;;;;;;;;;;1.28;100.00;96320.91;1585802;89;24768;-86
2022/04/01 10:53:39;;;;;;;;;;;;;;;1.29;100.00;96329.00;1568386;89;24580;-85
2022/04/01 10:56:22;;;;;;;;;;;;;;;1.29;100.00;96333.69;1594668;88;20224;-85
2022/04/01 10:59:07;;;;;;;;;;;;;;;1.28;100.00;96332.50;1567528;89;24813;-85
2022/04/01 11:01:34;;;;;;;;;;;;;;;1.31;100.00;96333.59;1582562;88;22031;-84
2022/04/01 11:04:09;;;;;;;;;;;;;;;1.29;100.00;96331.58;1604149;88;25968;-85
2022/04/01 11:06:36;;;;;;;;;;;;;;;1.27;100.00;96326.52;1582431;88;24472;-85
2022/04/01 11:09:06;;;;;;;;;;;;;;;1.30;100.00;96328.91;1585414;89;20386;-87
2022/04/01 11:11:33;;;;;;;;;;;;;;;1.29;100.00;96329.00;1589904;88;24823;-84
2022/04/01 11:14:07;;;;;;;;;;;;;;;1.28;100.00;96326.05;1611608;86;22823;-86
2022/04/01 11:16:48;;;;;;;;;;;;;;;1.31;100.00;96332.31;1610472;86;26285;-85
2022/04/01 11:19:15;;;;;;;;;;;;;;;1.33;100.00;96335.13;1595437;88;25279;-85
2022/04/01 11:21:43;;;;;;;;;;;;;;;1.34;100.00;96344.98;1576163;89;20260;-86
2022/04/01 11:24:26;;;;;;;;;;;;;;;1.38;100.00;96336.11;1607562;86;24784;-86
2022/04/01 11:26:52;;;;;;;;;;;;;;;1.36;100.00;96336.23;1641309;86;21967;-86
2022/04/01 11:29:20;;;;;;;;;;;;;;;1.37;100.00;96341.72;1615140;87;20971;-86
2022/04/01 11:31:54;;;;;;;;;;;;;;;1.40;100.00;96332.52;1624835;86;25165;-86
2022/04/01 11:34:20;;;;;;;;;;;;;;;1.45;100.00;96332.20;1647961;84;20561;-85
2022/04/01 11:36:47;;;;;;;;;;;;;;;1.54;100.00;96337.55;1627318;86;20259;-85
2022/04/01 11:39:16;;;;;;;;;;;;;;;1.55;100.00;96328.90;1622015;86;21986;-85
2022/04/01 11:41:50;;;;;;;;;;;;;;;1.58;100.00;96329.17;1611691;87;26046;-85
2022/04/01 11:44:18;;;;;;;;;;;;;;;1.56;100.00;96327.15;1610152;87;25408;-85
2022/04/01 11:46:54;;;;;;;;;;;;;;;1.51;100.00;96335.66;1614877;87;20222;-85
2022/04/01 11:49:26;;;;;;;;;;;;;;;1.47;100.00;96340.20;1616951;87;24740;-86
2022/04/01 11:51:52;;;;;;;;;;;;;;;1.44;100.00;96344.26;1613162;86;21979;-86
2022/04/01 11:54:19;;;;;;;;;;;;;;;1.41;100.00;96348.34;1617690;87;20944;-85
2022/04/01 11:56:47;;;;;;;;;;;;;;;1.46;100.00;96351.44;1610927;86;24388;-86
2022/04/01 11:59:13;;;;;;;;;;;;;;;1.46;100.00;96345.45;1587278;87;20236;-86
2022/04/01 12:01:54;;;;;;;;;;;;;;;1.49;100.00;96347.81;1631943;86;20226;-86
2022/04/01 12:04:08;;;;;;;;;;;;;;;1.53;100.00;96342.34;1629465;86;22005;-85
2022/04/01 12:09:28;;;;;;;;;;;;;;;1.60;100.00;96341.47;1609184;87;25264;-85
2022/04/01 12:11:57;;;;;;;;;;;;;;;1.64;100.00;96342.91;1613704;87;20280;-84
2022/04/01 12:14:28;;;;;;;;;;;;;;;1.67;100.00;96341.42;1633721;86;24844;-85
2022/04/01 12:16:51;;;;;;;;;;;;;;;1.63;100.00;96343.86;1604219;87;22085;-85
2022/04/01 12:19:20;;;;;;;;;;;;;;;1.58;100.00;96347.22;1623914;86;27341;-85
2022/04/01 12:21:59;;;;;;;;;;;;;;;1.57;100.00;96350.25;1588905;88;25193;-85
2022/04/01 12:24:27;;;;;;;;;;;;;;;1.56;100.00;96344.73;1593561;87;20231;-85
2022/04/01 12:27:00;;;;;;;;;;;;;;;1.56;100.00;96352.92;1620669;86;24725;-85
2022/04/01 12:29:30;;;;;;;;;;;;;;;1.55;100.00;96355.14;1627191;86;21962;-85
2022/04/01 12:32:02;;;;;;;;;;;;;;;1.52;100.00;96354.89;1621724;86;25998;-85
2022/04/01 12:34:28;;;;;;;;;;;;;;;1.52;100.00;96363.91;1615569;86;25237;-85
2022/04/01 12:37:07;;;;;;;;;;;;;;;1.53;100.00;96360.84;1615100;88;20278;-85
2022/04/01 12:39:34;;;;;;;;;;;;;;;1.55;100.00;96356.42;1629551;86;24746;-85
2022/04/01 12:42:08;;;;;;;;;;;;;;;1.59;100.00;96361.27;1610006;86;21357;-85
2022/04/01 12:44:35;;;;;;;;;;;;;;;1.61;100.00;96358.59;1612989;86;25992;-85
2022/04/01 12:47:03;;;;;;;;;;;;;;;1.62;100.00;96362.36;1600964;88;24418;-85
2022/04/01 12:49:32;;;;;;;;;;;;;;;1.63;100.00;96357.58;1602408;88;20349;-85
2022/04/01 12:52:01;;;;;;;;;;;;;;;1.68;100.00;96360.67;1624140;88;24747;-85
2022/04/01 12:54:31;;;;;;;;;;;;;;;1.74;100.00;96359.42;1626125;86;21949;-84
2022/04/01 12:56:58;;;;;;;;;;;;;;;1.77;100.00;96354.05;1627185;86;25987;-84
2022/04/01 12:59:24;;;;;;;;;;;;;;;1.77;100.00;96360.50;1618208;86;24425;-85
2022/04/01 13:01:59;;;;;;;;;;;;;;;1.69;100.00;96364.07;1612724;87;20336;-85
2022/04/01 13:04:31;;;;;;;;;;;;;;;1.63;100.00;96366.59;1597387;88;24742;-84
2022/04/01 13:07:03;;;;;;;;;;;;;;;1.59;100.00;96370.75;1589223;88;21994;-85
2022/04/01 13:09:34;;;;;;;;;;;;;;;1.51;100.00;96359.68;1608127;87;26662;-86